createdAt,value
2022-12-04T00:01:30.071Z,94.82
2022-12-04T00:04:00.785Z,94.98
2022-12-04T00:06:29.452Z,94.95
2022-12-04T00:08:57.539Z,94.63
2022-12-04T00:11:28.077Z,94.88
2022-12-04T00:13:59.177Z,94.68
2022-12-04T00:16:31.277Z,94.58
2022-12-04T00:18:59.365Z,94.69
2022-12-04T00:21:27.376Z,94.55
2022-12-04T00:23:55.065Z,94.57
2022-12-04T00:26:25.816Z,94.75
2022-12-04T00:28:54.427Z,94.49
2022-12-04T00:31:25.620Z,94.63
2022-12-04T00:33:53.812Z,94.99
2022-12-04T00:36:24.855Z,94.89
2022-12-04T00:38:52.718Z,94.92
2022-12-04T00:41:23.964Z,95.08
2022-12-04T00:43:52.261Z,95.09
2022-12-04T00:46:22.271Z,94.95
2022-12-04T00:48:50.521Z,95.05
2022-12-04T00:51:24.307Z,95.13
2022-12-04T00:53:52.731Z,94.76
2022-12-04T00:56:23.730Z,94.95
2022-12-04T00:58:57.239Z,95.16
2022-12-04T01:01:26.221Z,95.28
2022-12-04T01:03:55.728Z,95.10
2022-12-04T01:06:25.513Z,94.84
2022-12-04T01:08:54.881Z,94.91
2022-12-04T01:11:24.623Z,95.18
2022-12-04T01:13:52.755Z,94.77
2022-12-04T01:16:27.929Z,94.92
2022-12-04T01:18:56.165Z,95.03
2022-12-04T01:21:24.505Z,94.56
2022-12-04T01:23:52.317Z,94.89
2022-12-04T01:26:20.376Z,95.26
2022-12-04T01:28:47.999Z,95.33
2022-12-04T01:31:19.405Z,95.13
2022-12-04T01:33:48.104Z,94.99
2022-12-04T01:36:19.337Z,95.07
2022-12-04T01:38:47.026Z,95.12
2022-12-04T01:41:18.112Z,95.14
2022-12-04T01:43:45.804Z,95.55
2022-12-04T01:46:14.065Z,95.32
2022-12-04T01:48:53.427Z,95.31
2022-12-04T01:51:37.759Z,95.15
2022-12-04T01:54:07.565Z,95.40
2022-12-04T01:56:49.516Z,95.55
2022-12-04T01:59:21.273Z,95.10
2022-12-04T02:02:05.076Z,94.90
2022-12-04T02:04:34.840Z,95.12
2022-12-04T02:07:02.779Z,95.42
2022-12-04T02:09:32.251Z,94.99
2022-12-04T02:12:35.724Z,94.93
2022-12-04T02:15:18.358Z,95.28
2022-12-04T02:17:57.562Z,95.41
2022-12-04T02:20:29.855Z,95.16
2022-12-04T02:23:16.774Z,94.97
2022-12-04T02:26:03.159Z,95.62
2022-12-04T02:29:00.499Z,95.33
2022-12-04T02:32:06.381Z,95.10
2022-12-04T02:35:15.382Z,95.06
2022-12-04T02:37:59.094Z,95.01
2022-12-04T02:40:29.329Z,95.36
2022-12-04T02:42:56.856Z,95.30
2022-12-04T02:45:32.047Z,95.49
2022-12-04T02:48:02.816Z,95.35
2022-12-04T02:50:34.177Z,94.84
2022-12-04T02:53:08.422Z,94.80
2022-12-04T02:55:45.999Z,94.34
2022-12-04T02:58:24.740Z,94.14
2022-12-04T03:00:55.497Z,94.77
2022-12-04T03:03:27.265Z,94.77
2022-12-04T03:06:10.347Z,94.71
2022-12-04T03:08:51.068Z,94.39
2022-12-04T03:11:19.030Z,94.58
2022-12-04T03:14:01.863Z,93.87
2022-12-04T03:16:38.557Z,94.04
2022-12-04T03:19:14.357Z,94.32
2022-12-04T03:21:52.341Z,94.54
2022-12-04T03:24:28.494Z,94.29
2022-12-04T03:27:03.842Z,94.55
2022-12-04T03:29:57.650Z,94.85
2022-12-04T03:32:25.673Z,95.13
2022-12-04T03:35:05.233Z,95.29
2022-12-04T03:38:05.378Z,94.99
2022-12-04T03:40:43.848Z,95.50
2022-12-04T03:43:26.500Z,95.09
2022-12-04T03:46:06.451Z,95.05
2022-12-04T03:49:02.783Z,95.59
2022-12-04T03:51:52.239Z,95.23
2022-12-04T03:54:28.216Z,94.57
2022-12-04T03:57:03.249Z,94.76
2022-12-04T03:59:42.986Z,94.58
2022-12-04T04:02:17.749Z,94.45
2022-12-04T04:04:51.446Z,94.40
2022-12-04T04:07:30.271Z,94.13
2022-12-04T04:10:08.062Z,94.16
2022-12-04T04:12:44.318Z,94.09
2022-12-04T04:15:36.540Z,94.22
2022-12-04T04:18:22.700Z,94.03
2022-12-04T04:21:15.762Z,94.07
2022-12-04T04:24:08.505Z,94.22
2022-12-04T04:26:42.044Z,94.29
2022-12-04T04:29:10.860Z,94.58
2022-12-04T04:31:55.055Z,94.73
2022-12-04T04:34:49.314Z,95.08
2022-12-04T04:37:50.990Z,94.86
2022-12-04T04:40:37.922Z,94.41
2022-12-04T04:43:40.529Z,94.62
2022-12-04T04:46:20.070Z,94.79
2022-12-04T04:48:58.733Z,94.93
2022-12-04T04:51:28.060Z,94.51
2022-12-04T04:53:59.352Z,94.54
2022-12-04T04:56:27.660Z,94.76
2022-12-04T04:58:55.616Z,94.83
2022-12-04T05:01:28.655Z,94.39
2022-12-04T05:03:56.573Z,94.42
2022-12-04T05:06:24.111Z,94.61
2022-12-04T05:08:52.078Z,94.77
2022-12-04T05:11:19.665Z,95.19
2022-12-04T05:13:47.494Z,95.14
2022-12-04T05:16:16.329Z,95.67
2022-12-04T05:19:07.085Z,95.54
2022-12-04T05:21:35.193Z,95.15
2022-12-04T05:24:03.378Z,95.29
2022-12-04T05:26:30.962Z,95.21
2022-12-04T05:28:58.819Z,94.70
2022-12-04T05:31:26.510Z,95.03
2022-12-04T05:33:54.520Z,95.11
2022-12-04T05:36:22.095Z,94.89
2022-12-04T05:38:49.924Z,94.93
2022-12-04T05:41:17.548Z,95.06
2022-12-04T05:43:45.373Z,95.25
2022-12-04T05:46:13.210Z,95.21
2022-12-04T05:48:41.157Z,95.32
2022-12-04T05:51:10.780Z,95.04
2022-12-04T05:53:39.414Z,94.90
2022-12-04T05:56:07.761Z,94.68
2022-12-04T05:58:37.515Z,94.59
2022-12-04T06:01:13.560Z,94.62
2022-12-04T06:03:41.460Z,94.55
2022-12-04T06:06:20.721Z,94.79
2022-12-04T06:08:51.335Z,94.72
2022-12-04T06:11:22.243Z,94.67
2022-12-04T06:13:50.524Z,94.55
2022-12-04T06:16:27.046Z,94.71
2022-12-04T06:19:07.754Z,94.24
2022-12-04T06:21:37.256Z,94.24
2022-12-04T06:24:06.194Z,94.03
2022-12-04T06:26:33.833Z,94.01
2022-12-04T06:29:01.880Z,93.60
2022-12-04T06:31:30.778Z,93.95
2022-12-04T06:33:59.265Z,94.35
2022-12-04T06:36:27.374Z,94.22
2022-12-04T06:38:56.565Z,93.90
2022-12-04T06:41:25.869Z,93.79
2022-12-04T06:43:53.825Z,93.78
2022-12-04T06:46:24.228Z,93.96
2022-12-04T06:48:54.271Z,93.94
2022-12-04T06:51:23.399Z,93.61
2022-12-04T06:53:51.835Z,93.65
2022-12-04T06:56:22.284Z,93.66
2022-12-04T06:58:53.226Z,94.03
2022-12-04T07:01:26.640Z,93.70
2022-12-04T07:03:55.230Z,94.17
2022-12-04T07:06:28.582Z,94.03
2022-12-04T07:09:11.705Z,94.16
2022-12-04T07:11:40.723Z,94.49
2022-12-04T07:14:09.581Z,94.63
2022-12-04T07:16:41.083Z,94.45
2022-12-04T07:19:11.340Z,94.26
2022-12-04T07:21:39.099Z,94.31
2022-12-04T07:24:07.222Z,94.32
2022-12-04T07:26:34.891Z,94.32
2022-12-04T07:29:02.800Z,93.88
2022-12-04T07:31:31.004Z,93.59
2022-12-04T07:33:59.879Z,93.89
2022-12-04T07:36:27.907Z,93.22
2022-12-04T07:38:56.571Z,93.22
2022-12-04T07:41:24.726Z,93.35
2022-12-04T07:43:53.932Z,93.26
2022-12-04T07:46:24.822Z,93.35
2022-12-04T07:48:54.857Z,92.74
2022-12-04T07:51:25.173Z,92.96
2022-12-04T07:53:54.268Z,92.96
2022-12-04T07:56:22.080Z,92.94
2022-12-04T07:58:50.247Z,92.44
2022-12-04T08:01:27.298Z,92.75
2022-12-04T08:03:58.066Z,92.62
2022-12-04T08:06:28.142Z,92.29
2022-12-04T08:08:57.400Z,92.14
2022-12-04T08:11:26.765Z,92.04
2022-12-04T08:13:59.859Z,92.26
2022-12-04T08:16:28.874Z,91.94
2022-12-04T08:18:57.138Z,92.17
2022-12-04T08:21:27.844Z,92.18
2022-12-04T08:23:58.190Z,91.89
2022-12-04T08:26:28.276Z,91.80
2022-12-04T08:28:57.747Z,91.90
2022-12-04T08:31:28.017Z,92.17
2022-12-04T08:33:58.262Z,91.73
2022-12-04T08:36:26.982Z,91.74
2022-12-04T08:38:55.390Z,91.56
2022-12-04T08:41:26.101Z,91.45
2022-12-04T08:43:55.481Z,91.41
2022-12-04T08:46:25.059Z,91.15
2022-12-04T08:48:53.819Z,91.50
2022-12-04T08:51:24.244Z,91.62
2022-12-04T08:54:07.786Z,91.51
2022-12-04T08:56:37.595Z,91.15
2022-12-04T08:59:05.505Z,91.24
2022-12-04T09:01:34.528Z,91.39
2022-12-04T09:04:02.422Z,90.70
2022-12-04T09:06:30.467Z,91.07
2022-12-04T09:08:58.373Z,91.24
2022-12-04T09:11:28.283Z,91.07
2022-12-04T09:13:56.372Z,90.63
2022-12-04T09:16:25.917Z,90.54
2022-12-04T09:18:54.408Z,90.73
2022-12-04T09:21:24.015Z,90.46
2022-12-04T09:23:51.856Z,90.29
2022-12-04T09:26:28.691Z,90.27
2022-12-04T09:28:58.534Z,90.26
2022-12-04T09:31:26.681Z,90.36
2022-12-04T09:33:54.412Z,90.46
2022-12-04T09:36:22.355Z,90.42
2022-12-04T09:38:52.438Z,90.19
2022-12-04T09:41:30.705Z,90.52
2022-12-04T09:44:08.558Z,90.45
2022-12-04T09:46:41.522Z,89.94
2022-12-04T09:49:50.821Z,90.25
2022-12-04T09:52:51.953Z,89.95
2022-12-04T09:55:45.711Z,90.13
2022-12-04T09:58:21.197Z,89.97
2022-12-04T10:00:52.156Z,89.94
2022-12-04T10:03:25.357Z,90.13
2022-12-04T10:06:03.851Z,89.71
2022-12-04T10:08:37.622Z,89.42
2022-12-04T10:11:16.575Z,89.05
2022-12-04T10:13:49.868Z,88.55
2022-12-04T10:16:32.433Z,88.73
2022-12-04T10:19:26.758Z,88.90
2022-12-04T10:22:21.153Z,88.71
2022-12-04T10:24:56.962Z,88.35
2022-12-04T10:27:32.734Z,88.52
2022-12-04T10:30:24.356Z,88.53
2022-12-04T10:33:10.571Z,88.21
2022-12-04T10:35:41.243Z,88.16
2022-12-04T10:38:23.088Z,87.74
2022-12-04T10:41:15.041Z,87.14
2022-12-04T10:43:51.087Z,87.73
2022-12-04T10:46:26.341Z,87.25
2022-12-04T10:49:16.148Z,87.42
2022-12-04T10:51:45.249Z,87.12
2022-12-04T10:54:32.364Z,86.65
2022-12-04T10:57:06.438Z,86.53
2022-12-04T10:59:34.364Z,86.67
2022-12-04T11:02:16.512Z,86.92
2022-12-04T11:04:50.958Z,87.38
2022-12-04T11:07:26.678Z,87.43
2022-12-04T11:10:17.749Z,87.22
2022-12-04T11:13:04.541Z,87.51
2022-12-04T11:15:35.031Z,87.59
2022-12-04T11:18:21.708Z,87.29
2022-12-04T11:20:55.175Z,87.12
2022-12-04T11:23:24.033Z,87.45
2022-12-04T11:25:59.359Z,88.01
2022-12-04T11:28:47.898Z,88.04
2022-12-04T11:31:22.265Z,87.74
2022-12-04T11:33:54.721Z,87.57
2022-12-04T11:36:32.732Z,87.42
2022-12-04T11:39:29.739Z,87.46
2022-12-04T11:42:28.765Z,87.41
2022-12-04T11:45:18.857Z,87.27
2022-12-04T11:47:55.356Z,87.35
2022-12-04T11:51:00.202Z,87.39
2022-12-04T11:53:46.871Z,87.58
2022-12-04T11:56:23.415Z,87.52
2022-12-04T11:59:03.091Z,87.55
2022-12-04T12:01:53.348Z,87.58
2022-12-04T12:04:28.075Z,87.68
2022-12-04T12:06:58.754Z,87.94
2022-12-04T12:09:39.838Z,88.26
2022-12-04T12:12:49.813Z,88.58
2022-12-04T12:15:55.589Z,88.17
2022-12-04T12:18:29.128Z,88.56
2022-12-04T12:21:02.922Z,88.71
2022-12-04T12:23:56.400Z,88.67
2022-12-04T12:26:34.388Z,88.77
2022-12-04T12:29:37.819Z,88.71
2022-12-04T12:32:42.963Z,88.93
2022-12-04T12:35:34.449Z,88.99
2022-12-04T12:38:07.399Z,88.88
2022-12-04T12:40:55.930Z,88.85
2022-12-04T12:43:33.169Z,89.17
2022-12-04T12:46:11.351Z,88.54
2022-12-04T12:49:05.257Z,88.66
2022-12-04T12:51:37.941Z,88.19
2022-12-04T12:54:14.062Z,88.13
2022-12-04T12:56:49.750Z,88.80
2022-12-04T12:59:27.329Z,88.75
2022-12-04T13:02:14.197Z,88.20
2022-12-04T13:04:48.463Z,88.16
2022-12-04T13:07:27.119Z,88.09
2022-12-04T13:10:03.308Z,87.89
2022-12-04T13:12:44.091Z,88.69
2022-12-04T13:15:22.163Z,88.71
2022-12-04T13:17:54.027Z,88.90
2022-12-04T13:20:26.851Z,89.11
2022-12-04T13:23:27.688Z,89.18
2022-12-04T13:26:06.749Z,88.96
2022-12-04T13:28:49.584Z,88.40
2022-12-04T13:31:21.257Z,88.29
2022-12-04T13:33:52.350Z,88.66
2022-12-04T13:36:38.688Z,88.83
2022-12-04T13:39:18.546Z,88.89
2022-12-04T13:41:46.355Z,88.75
2022-12-04T13:44:24.222Z,88.55
2022-12-04T13:46:59.915Z,88.74
2022-12-04T13:49:33.581Z,88.60
2022-12-04T13:52:04.276Z,88.32
2022-12-04T13:54:36.860Z,88.07
2022-12-04T13:57:17.312Z,88.49
2022-12-04T13:59:46.045Z,88.00
2022-12-04T14:02:32.283Z,88.22
2022-12-04T14:05:07.178Z,88.33
2022-12-04T14:07:37.838Z,88.41
2022-12-04T14:10:28.410Z,88.19
2022-12-04T14:12:58.872Z,88.70
2022-12-04T14:15:35.460Z,88.22
2022-12-04T14:18:08.933Z,88.78
2022-12-04T14:20:37.035Z,89.19
2022-12-04T14:23:35.045Z,88.52
2022-12-04T14:26:05.274Z,88.63
2022-12-04T14:28:38.712Z,88.37
2022-12-04T14:31:29.498Z,87.96
2022-12-04T14:34:12.768Z,88.56
2022-12-04T14:36:47.272Z,88.10
2022-12-04T14:39:36.199Z,88.07
2022-12-04T14:42:26.611Z,88.45
2022-12-04T14:45:04.581Z,88.55
2022-12-04T14:48:04.002Z,88.31
2022-12-04T14:50:50.392Z,88.59
2022-12-04T14:53:37.760Z,88.39
2022-12-04T14:56:29.116Z,88.29
2022-12-04T14:58:59.221Z,88.63
2022-12-04T15:01:34.110Z,88.40
2022-12-04T15:04:23.577Z,88.20
2022-12-04T15:06:59.752Z,88.42
2022-12-04T15:09:47.667Z,88.06
2022-12-04T15:12:36.445Z,88.36
2022-12-04T15:15:26.215Z,88.49
2022-12-04T15:18:09.364Z,88.42
2022-12-04T15:20:51.257Z,88.17
2022-12-04T15:23:34.599Z,87.84
2022-12-04T15:26:15.930Z,88.36
2022-12-04T15:28:52.590Z,88.27
2022-12-04T15:31:33.357Z,88.20
2022-12-04T15:34:09.282Z,87.91
2022-12-04T15:37:01.037Z,88.08
2022-12-04T15:39:32.258Z,88.04
2022-12-04T15:42:23.938Z,87.77
2022-12-04T15:45:09.891Z,87.79
2022-12-04T15:47:58.741Z,88.16
2022-12-04T15:50:28.439Z,88.17
2022-12-04T15:53:28.315Z,87.84
2022-12-04T15:56:02.756Z,87.85
2022-12-04T15:58:37.732Z,87.68
2022-12-04T16:01:11.928Z,87.73
2022-12-04T16:03:42.728Z,87.79
2022-12-04T16:06:21.635Z,87.58
2022-12-04T16:09:18.376Z,87.61
2022-12-04T16:11:46.237Z,87.54
2022-12-04T16:14:18.842Z,87.80
2022-12-04T16:16:52.451Z,88.01
2022-12-04T16:19:25.623Z,88.09
2022-12-04T16:21:53.463Z,88.78
2022-12-04T16:24:22.356Z,88.17
2022-12-04T16:26:51.977Z,88.46
2022-12-04T16:29:19.988Z,88.36
2022-12-04T16:31:47.980Z,88.13
2022-12-04T16:34:16.095Z,87.98
2022-12-04T16:36:43.757Z,88.04
2022-12-04T16:39:11.819Z,87.70
2022-12-04T16:41:40.358Z,88.04
2022-12-04T16:44:15.709Z,88.09
2022-12-04T16:46:44.646Z,88.18
2022-12-04T16:49:13.442Z,88.26
2022-12-04T16:51:46.805Z,88.06
2022-12-04T16:54:15.034Z,88.07
2022-12-04T16:56:43.001Z,88.00
2022-12-04T16:59:12.387Z,87.83
2022-12-04T17:01:45.371Z,87.93
2022-12-04T17:04:14.314Z,87.69
2022-12-04T17:06:42.054Z,87.68
2022-12-04T17:09:10.328Z,87.55
2022-12-04T17:11:38.717Z,87.91
2022-12-04T17:14:09.651Z,87.87
2022-12-04T17:16:41.793Z,87.66
2022-12-04T17:19:11.477Z,87.71
2022-12-04T17:21:40.388Z,88.31
2022-12-04T17:24:08.652Z,88.34
2022-12-04T17:26:36.521Z,87.92
2022-12-04T17:29:04.675Z,88.09
2022-12-04T17:31:32.553Z,88.11
2022-12-04T17:34:00.861Z,88.04
2022-12-04T17:36:28.635Z,87.96
2022-12-04T17:38:58.665Z,87.99
2022-12-04T17:41:26.496Z,88.22
2022-12-04T17:43:54.767Z,87.86
2022-12-04T17:46:24.655Z,88.20
2022-12-04T17:48:55.351Z,88.02
2022-12-04T17:51:25.261Z,87.49
2022-12-04T17:53:53.717Z,87.87
2022-12-04T17:56:23.861Z,87.75
2022-12-04T17:58:51.841Z,87.56
2022-12-04T18:01:23.385Z,87.78
2022-12-04T18:03:57.542Z,88.30
2022-12-04T18:06:34.364Z,87.84
2022-12-04T18:09:03.329Z,88.14
2022-12-04T18:11:32.663Z,88.25
2022-12-04T18:14:08.517Z,88.41
2022-12-04T18:16:42.323Z,87.85
2022-12-04T18:19:11.602Z,88.20
2022-12-04T18:21:39.297Z,88.39
2022-12-04T18:24:07.785Z,87.90
2022-12-04T18:26:41.355Z,88.49
2022-12-04T18:29:10.691Z,88.30
2022-12-04T18:31:39.187Z,88.26
2022-12-04T18:34:08.134Z,88.15
2022-12-04T18:36:38.697Z,88.47
2022-12-04T18:39:23.128Z,87.81
2022-12-04T18:41:51.333Z,87.84
2022-12-04T18:44:19.103Z,87.48
2022-12-04T18:46:47.101Z,87.52
2022-12-04T18:49:14.964Z,87.85
2022-12-04T18:51:49.207Z,87.93
2022-12-04T18:54:21.033Z,87.35
2022-12-04T18:56:49.372Z,87.73
2022-12-04T18:59:26.400Z,87.30
2022-12-04T19:01:55.376Z,87.57
2022-12-04T19:04:24.979Z,87.34
2022-12-04T19:06:55.604Z,87.24
2022-12-04T19:10:09.988Z,87.61
2022-12-04T19:12:14.470Z,87.67
2022-12-04T19:14:42.131Z,87.80
2022-12-04T19:17:10.351Z,87.12
2022-12-04T19:19:38.158Z,87.16
2022-12-04T19:22:05.847Z,86.87
2022-12-04T19:24:33.705Z,86.71
2022-12-04T19:27:09.550Z,86.75
2022-12-04T19:29:38.720Z,86.89
2022-12-04T19:32:07.200Z,86.90
2022-12-04T19:34:35.801Z,86.81
2022-12-04T19:37:03.496Z,86.93
2022-12-04T19:39:31.789Z,86.65
2022-12-04T19:41:59.443Z,86.99
2022-12-04T19:44:47.937Z,87.54
2022-12-04T19:47:14.943Z,87.54
2022-12-04T19:49:42.906Z,87.41
2022-12-04T19:52:10.486Z,87.16
2022-12-04T19:54:38.509Z,87.64
2022-12-04T19:57:06.183Z,87.25
2022-12-04T19:59:37.730Z,87.14
2022-12-04T20:02:09.202Z,87.27
2022-12-04T20:04:39.004Z,86.92
2022-12-04T20:07:06.660Z,86.97
2022-12-04T20:09:34.678Z,86.95
2022-12-04T20:12:03.064Z,86.77
2022-12-04T20:14:31.154Z,86.80
2022-12-04T20:16:59.700Z,87.18
2022-12-04T20:19:27.675Z,86.96
2022-12-04T20:21:59.346Z,86.93
2022-12-04T20:24:28.386Z,87.28
2022-12-04T20:26:56.056Z,86.90
2022-12-04T20:29:23.877Z,86.34
2022-12-04T20:31:51.553Z,86.14
2022-12-04T20:34:19.874Z,85.99
2022-12-04T20:36:48.576Z,86.15
2022-12-04T20:39:18.170Z,86.30
2022-12-04T20:41:46.440Z,86.34
2022-12-04T20:44:16.370Z,86.60
2022-12-04T20:46:44.589Z,86.46
2022-12-04T20:49:21.893Z,86.30
2022-12-04T20:51:51.622Z,86.41
2022-12-04T20:54:21.340Z,86.66
2022-12-04T20:56:50.370Z,86.34
2022-12-04T20:59:20.218Z,86.03
2022-12-04T21:01:49.304Z,86.33
2022-12-04T21:04:18.216Z,86.09
2022-12-04T21:06:49.162Z,85.90
2022-12-04T21:09:21.944Z,85.81
2022-12-04T21:11:54.675Z,85.98
2022-12-04T21:14:49.059Z,85.60
2022-12-04T21:17:19.353Z,86.03
2022-12-04T21:19:49.563Z,85.74
2022-12-04T21:22:18.487Z,85.82
2022-12-04T21:24:46.487Z,85.81
2022-12-04T21:27:19.155Z,85.76
2022-12-04T21:29:49.330Z,85.66
2022-12-04T21:32:18.617Z,86.20
2022-12-04T21:34:46.523Z,86.20
2022-12-04T21:37:14.712Z,86.00
2022-12-04T21:39:44.061Z,86.33
2022-12-04T21:42:30.253Z,86.56
2022-12-04T21:45:00.295Z,86.38
2022-12-04T21:47:28.761Z,86.06
2022-12-04T21:49:57.150Z,86.59
2022-12-04T21:52:25.124Z,86.30
2022-12-04T21:54:54.169Z,86.02
2022-12-04T21:57:22.537Z,86.55
2022-12-04T21:59:52.471Z,86.63
2022-12-04T22:02:20.488Z,86.03
2022-12-04T22:04:48.798Z,86.25
2022-12-04T22:07:16.579Z,86.34
2022-12-04T22:09:46.341Z,86.43
2022-12-04T22:12:41.046Z,86.30
2022-12-04T22:15:01.884Z,85.98
2022-12-04T22:17:30.185Z,85.82
2022-12-04T22:19:58.140Z,86.06
2022-12-04T22:22:25.982Z,86.37
2022-12-04T22:24:53.897Z,86.31
2022-12-04T22:27:21.496Z,86.14
2022-12-04T22:29:51.121Z,86.17
2022-12-04T22:32:20.034Z,86.42
2022-12-04T22:34:50.889Z,86.89
2022-12-04T22:37:18.516Z,86.60
2022-12-04T22:39:46.601Z,86.18
2022-12-04T22:42:14.364Z,86.36
2022-12-04T22:44:42.376Z,86.08
2022-12-04T22:47:10.586Z,85.88
2022-12-04T22:49:38.620Z,86.25
2022-12-04T22:52:06.246Z,86.01
2022-12-04T22:54:34.274Z,86.03
2022-12-04T22:57:01.926Z,86.47
2022-12-04T22:59:30.021Z,86.27
2022-12-04T23:01:57.708Z,86.40
2022-12-04T23:04:26.100Z,86.37
2022-12-04T23:06:53.768Z,86.40
2022-12-04T23:09:21.828Z,86.12
2022-12-04T23:11:53.904Z,86.18
2022-12-04T23:14:22.588Z,86.41
2022-12-04T23:16:50.928Z,86.47
2022-12-04T23:19:19.765Z,86.59
2022-12-04T23:21:53.434Z,86.21
2022-12-04T23:24:25.381Z,86.32
2022-12-04T23:26:53.285Z,86.50
2022-12-04T23:32:08.924Z,86.75
2022-12-04T23:34:36.916Z,86.87
2022-12-04T23:37:04.510Z,86.75
2022-12-04T23:39:32.350Z,86.80
2022-12-04T23:41:59.949Z,86.75
2022-12-04T23:44:27.863Z,86.74
2022-12-04T23:46:55.634Z,86.77
2022-12-04T23:49:23.532Z,86.57
2022-12-04T23:51:51.175Z,86.71
2022-12-04T23:54:19.055Z,86.59
2022-12-04T23:56:46.787Z,86.76
2022-12-04T23:59:14.771Z,86.36
